Garden City, Louisiana
Current Conditions -  °F | °C
As of 1:55 AM on Friday 24 Oct 2014 (Local Time) from KPTN Reporting Station
Clear Clear  
Wind Chill: 55°   Ceiling: Unl
Heat Index: 55°   Visibility: 10mi
Dew Point: 54°   Wind: 3mph
Humidity: 94%   Direction: 10°N
Pressure: 30.1"   Gusts: NA
Location:  29.77°N, 91.47°W
Report Text: KPTN 240655Z AUTO 01003KT 10SM CLR 13/12 A3010 RMK AO1
Loading
Personal Weather Stations






























Interactive Weather Map
Tropical Storm Tracking
New forecast layout! Learn more

10-Day Weather Forecast

Advertisements
Track Severe Weather on mobile